Time;durP1;ratioP1;P1;durP2;ratioP2;P2;SDS_P1;SDS_P2;PMS_P1;PMS_P2;Temp;Humidity;BMP_temperature;BMP_pressure;BME280_temperature;BME280_humidity;BME280_pressure;Samples;Min_cycle;Max_cycle;Signal;HPM_P1;HPM_P2
2020/12/29 09:17:48;;;;;;;1.67;1.00;;;4.00;99.90;;;;;;6151507;23;20294;-84
2020/12/29 13:27:12;;;;;;;1.00;0.90;;;12.60;98.20;;;;;;4918413;29;20466;-85
2020/12/29 13:29:41;;;;;;;1.40;1.17;;;12.70;97.70;;;;;;5043012;28;20453;-85
2020/12/29 13:33:08;;;;;;;;;;;;;;;;;;;;;
2020/12/29 13:36:00;;;;;;;1.57;1.47;;;11.70;96.30;;;;;;5088661;28;20436;-87
2020/12/29 13:42:09;;;;;;;1.70;1.20;;;10.00;98.20;;;;;;4945506;29;20642;-86
2020/12/29 14:04:55;;;;;;;1.23;1.23;;;7.50;99.90;;;;;;5018200;28;20167;-85
2020/12/29 14:08:22;;;;;;;;;;;;;;;;;;;;;
2020/12/29 17:10:33;;;;;;;8.60;4.90;;;4.40;99.90;;;;;;4905064;29;20248;-85
2020/12/29 17:22:26;;;;;;;3.90;3.60;;;4.40;99.90;;;;;;4824413;29;20198;-85
2020/12/29 17:25:10;;;;;;;4.70;4.38;;;4.40;99.90;;;;;;4881538;29;20211;-83
2020/12/29 17:27:55;;;;;;;;;;;;;;;;;;;;;
2020/12/29 17:30:40;;;;;;;;;;;;;;;;;;;;;
2020/12/29 17:37:09;;;;;;;;;;;;;;;;;;;;;
2020/12/29 17:40:27;;;;;;;3.97;3.67;;;4.20;99.90;;;;;;4921382;29;20191;-83
2020/12/29 17:46:41;;;;;;;4.45;3.40;;;4.10;99.90;;;;;;4898502;29;20236;-84
2020/12/29 17:49:07;;;;;;;5.43;3.53;;;4.10;99.90;;;;;;4908738;29;20217;-84
2020/12/29 17:51:33;;;;;;;2.35;2.25;;;4.00;99.90;;;;;;4910784;29;20582;-84
2020/12/29 17:54:01;;;;;;;3.40;3.13;;;4.00;99.90;;;;;;4912651;29;20259;-85
2020/12/29 17:56:29;;;;;;;3.00;2.70;;;3.90;99.90;;;;;;4913325;29;20235;-83
2020/12/29 17:58:55;;;;;;;2.72;2.53;;;4.00;99.90;;;;;;4908117;29;20287;-83
2020/12/29 18:01:25;;;;;;;2.75;2.53;;;3.90;99.90;;;;;;4911175;29;20211;-84
2020/12/29 18:04:13;;;;;;;2.97;2.60;;;3.90;99.90;;;;;;4910559;29;20211;-84
2020/12/29 18:06:40;;;;;;;3.35;2.70;;;3.80;99.90;;;;;;4910529;29;20234;-84
2020/12/29 18:09:14;;;;;;;2.78;2.28;;;3.80;99.90;;;;;;4911127;29;20616;-85
2020/12/29 18:11:46;;;;;;;4.05;2.80;;;3.70;99.90;;;;;;4911460;29;20258;-83
2020/12/29 18:14:13;;;;;;;3.80;2.83;;;3.70;99.90;;;;;;4911006;29;20215;-85
2020/12/29 18:16:56;;;;;;;6.53;3.00;;;3.70;99.90;;;;;;4911812;29;20227;-86
2020/12/29 18:19:23;;;;;;;3.60;3.30;;;3.70;99.90;;;;;;4910931;29;20634;-86
2020/12/29 18:21:55;;;;;;;4.63;4.10;;;3.70;99.90;;;;;;4909816;29;20223;-86
2020/12/29 18:24:23;;;;;;;5.43;4.43;;;3.70;99.90;;;;;;4909894;29;20194;-84
2020/12/29 18:26:54;;;;;;;4.25;3.85;;;3.60;99.90;;;;;;4910522;29;20274;-85
2020/12/29 18:29:20;;;;;;;4.78;4.38;;;3.70;99.90;;;;;;4908432;29;20191;-86
2020/12/29 18:31:50;;;;;;;3.67;3.38;;;3.60;99.90;;;;;;4908781;29;20286;-85
2020/12/29 18:34:17;;;;;;;5.25;3.55;;;3.60;99.90;;;;;;4907588;29;20239;-85
2020/12/29 18:36:46;;;;;;;3.78;3.45;;;3.50;99.90;;;;;;4908253;29;20227;-84
2020/12/29 18:39:13;;;;;;;7.72;4.30;;;3.50;99.90;;;;;;4909538;29;20211;-85
2020/12/29 18:41:40;;;;;;;5.20;4.70;;;3.50;99.90;;;;;;4909790;29;20215;-86
2020/12/29 18:44:21;;;;;;;4.38;3.65;;;3.50;99.90;;;;;;4907176;29;20211;-84
2020/12/29 18:46:51;;;;;;;7.45;5.55;;;3.50;99.90;;;;;;4910400;29;20306;-84
2020/12/29 18:49:37;;;;;;;3.90;3.60;;;3.50;99.90;;;;;;4907111;29;20207;-84
2020/12/29 18:52:08;;;;;;;4.22;3.92;;;3.50;99.90;;;;;;4907198;29;20564;-84
2020/12/29 18:54:40;;;;;;;4.38;4.00;;;3.40;99.90;;;;;;4909918;29;20277;-86
2020/12/29 18:57:07;;;;;;;6.85;3.33;;;3.50;99.90;;;;;;4908949;29;20248;-85
2020/12/29 18:59:36;;;;;;;5.85;4.30;;;3.40;99.90;;;;;;4910375;29;20303;-84
2020/12/29 19:02:04;;;;;;;3.47;3.20;;;3.30;99.90;;;;;;4910527;29;20298;-85
2020/12/29 19:04:30;;;;;;;4.22;3.25;;;3.30;99.90;;;;;;4910757;29;20278;-85
2020/12/29 19:06:57;;;;;;;3.33;2.55;;;3.30;99.90;;;;;;4910487;29;20325;-86
2020/12/29 19:09:23;;;;;;;4.00;3.70;;;3.30;99.90;;;;;;4910090;29;20251;-85
2020/12/29 19:11:50;;;;;;;2.88;2.67;;;3.20;99.90;;;;;;4909570;29;20241;-84
2020/12/29 19:14:17;;;;;;;3.50;3.15;;;3.20;99.90;;;;;;4908023;29;20208;-85
2020/12/29 19:16:44;;;;;;;4.43;3.20;;;3.20;99.90;;;;;;4909607;29;20604;-85
2020/12/29 19:19:13;;;;;;;4.25;3.95;;;3.20;99.90;;;;;;4908070;29;20291;-85
2020/12/29 19:21:42;;;;;;;3.55;3.22;;;3.20;99.90;;;;;;4906050;29;20207;-85
2020/12/29 19:24:24;;;;;;;4.75;4.25;;;3.20;99.90;;;;;;4904100;29;20221;-84
2020/12/29 19:27:11;;;;;;;4.95;3.13;;;3.20;99.90;;;;;;4904660;29;20234;-83
2020/12/29 19:30:00;;;;;;;5.32;4.78;;;3.20;99.90;;;;;;4904857;29;20219;-83
2020/12/29 19:32:53;;;;;;;4.30;4.00;;;3.10;99.90;;;;;;4898790;29;20216;-84
2020/12/29 19:35:32;;;;;;;4.05;3.30;;;3.20;99.90;;;;;;4898366;29;20283;-83
2020/12/29 19:38:24;;;;;;;5.22;4.70;;;3.20;99.90;;;;;;4893291;29;20290;-83
2020/12/29 19:40:53;;;;;;;4.50;4.10;;;3.20;99.90;;;;;;4863032;29;20311;-83
2020/12/29 19:43:58;;;;;;;5.72;4.97;;;3.30;99.90;;;;;;4867457;29;20699;-83
2020/12/29 19:49:22;;;;;;;;;;;;;;;;;;;;;
2020/12/29 19:52:15;;;;;;;5.80;4.38;;;3.30;99.90;;;;;;4906747;29;20299;-83
2020/12/29 19:54:58;;;;;;;5.60;3.60;;;3.30;99.90;;;;;;4908936;29;20268;-84
2020/12/29 19:57:45;;;;;;;5.50;3.97;;;3.40;99.90;;;;;;4909771;29;20239;-84
2020/12/29 20:00:52;;;;;;;5.43;4.93;;;3.40;99.90;;;;;;4909457;29;20208;-84
2020/12/29 20:03:46;;;;;;;7.10;5.35;;;3.40;99.90;;;;;;4907722;29;20223;-84
2020/12/29 20:06:20;;;;;;;4.32;4.03;;;3.50;99.90;;;;;;4908066;29;20748;-84
2020/12/29 20:11:46;;;;;;;4.43;4.05;;;3.70;99.90;;;;;;4905838;29;20204;-84
2020/12/29 20:14:21;;;;;;;5.05;4.65;;;3.70;99.90;;;;;;4905552;29;20211;-84
2020/12/29 20:17:23;;;;;;;5.05;3.97;;;3.80;99.90;;;;;;4908216;29;20240;-84
2020/12/29 20:19:55;;;;;;;3.88;3.58;;;3.90;99.90;;;;;;4906058;29;20219;-85
2020/12/29 20:22:27;;;;;;;3.90;3.60;;;3.90;99.90;;;;;;4908921;29;20730;-83
2020/12/29 20:25:04;;;;;;;4.18;3.75;;;4.00;99.90;;;;;;4909780;29;20298;-83
2020/12/29 20:27:33;;;;;;;4.60;4.20;;;4.00;99.90;;;;;;4907972;29;20228;-83
2020/12/29 20:30:11;;;;;;;4.60;3.85;;;4.00;99.90;;;;;;4907945;29;20216;-83
2020/12/29 20:35:43;;;;;;;3.42;3.13;;;4.00;99.90;;;;;;4905568;29;20262;-83
2020/12/29 20:38:47;;;;;;;5.53;3.50;;;4.00;99.90;;;;;;4908056;29;20262;-84
2020/12/29 20:41:23;;;;;;;6.65;3.08;;;4.00;99.90;;;;;;4867004;29;20222;-84
2020/12/29 20:43:50;;;;;;;3.58;3.00;;;3.90;99.90;;;;;;4869757;29;20282;-85
2020/12/29 20:46:52;;;;;;;;;;;;;;;;;;;;;
2020/12/29 20:49:56;;;;;;;3.53;3.20;;;3.90;99.90;;;;;;4908391;29;20262;-85
2020/12/29 20:52:23;;;;;;;4.03;3.65;;;3.90;99.90;;;;;;4907995;29;20221;-84
2020/12/29 20:55:14;;;;;;;5.63;4.88;;;3.90;99.90;;;;;;4898383;29;20278;-85
2020/12/29 20:58:11;;;;;;;3.78;3.47;;;3.80;99.90;;;;;;4896300;29;20220;-84
2020/12/29 21:00:42;;;;;;;4.32;3.97;;;3.80;99.90;;;;;;4899532;29;20712;-85
2020/12/29 21:03:10;;;;;;;3.97;3.67;;;3.80;99.90;;;;;;4903005;29;20240;-84
2020/12/29 21:05:38;;;;;;;5.15;3.97;;;3.80;99.90;;;;;;4898745;29;20204;-85
2020/12/29 21:08:08;;;;;;;5.47;3.75;;;3.90;99.90;;;;;;4908953;29;20247;-85
2020/12/29 21:10:50;;;;;;;;;;;;;;;;;;;;;
2020/12/29 21:13:19;;;;;;;4.53;4.13;;;4.00;99.90;;;;;;4892041;29;20644;-85
2020/12/29 21:16:12;;;;;;;4.25;3.83;;;4.00;99.90;;;;;;4907879;29;20218;-85
2020/12/29 21:19:18;;;;;;;5.38;4.40;;;4.00;99.90;;;;;;4875967;29;20238;-85
2020/12/29 21:22:10;;;;;;;5.90;4.53;;;4.10;99.90;;;;;;4847175;29;20214;-84
2020/12/29 21:24:39;;;;;;;4.75;3.58;;;4.10;99.90;;;;;;4894756;29;20213;-85
2020/12/29 21:31:19;;;;;;;;;;;;;;;;;;;;;
2020/12/29 22:36:49;;;;;;;4.70;3.45;;;4.30;99.90;;;;;;4745995;29;20854;-84
2020/12/29 22:39:20;;;;;;;3.80;3.20;;;4.30;99.90;;;;;;4783807;29;20329;-84
2020/12/29 22:41:52;;;;;;;3.97;3.53;;;4.20;99.90;;;;;;4858783;29;20212;-84
2020/12/29 22:47:36;;;;;;;3.88;3.10;;;4.20;99.90;;;;;;4846846;29;20271;-84
2020/12/29 22:54:10;;;;;;;3.20;2.95;;;4.10;99.90;;;;;;4849317;29;20231;-84
2020/12/29 22:57:29;;;;;;;;;;;;;;;;;;;;;
2020/12/29 23:07:42;;;;;;;7.43;3.28;;;3.90;99.90;;;;;;4796944;29;20310;-84
2020/12/29 23:10:21;;;;;;;;;;;;;;;;;;;;;
2020/12/29 23:13:18;;;;;;;7.95;3.58;;;3.70;99.90;;;;;;4831003;29;20273;-84
2020/12/29 23:18:42;;;;;;;3.55;3.25;;;3.60;99.90;;;;;;4885313;29;20235;-84
2020/12/29 23:21:38;;;;;;;3.75;3.45;;;3.50;99.90;;;;;;4888568;29;20708;-83
2020/12/29 23:24:28;;;;;;;3.92;3.03;;;3.50;99.90;;;;;;4884897;29;20216;-84
2020/12/29 23:26:59;;;;;;;3.00;2.80;;;3.50;99.90;;;;;;4886546;29;20275;-83
2020/12/29 23:29:25;;;;;;;4.10;3.75;;;3.50;99.90;;;;;;4885396;29;20219;-84
2020/12/29 23:31:55;;;;;;;2.63;2.40;;;3.40;99.90;;;;;;4884822;29;20307;-83
2020/12/29 23:34:38;;;;;;;2.85;2.65;;;3.40;99.90;;;;;;4885832;29;20228;-83
2020/12/29 23:40:27;;;;;;;3.10;2.90;;;3.40;99.90;;;;;;4886189;29;20581;-84
2020/12/29 23:43:04;;;;;;;2.80;2.60;;;3.40;99.90;;;;;;4884464;29;20215;-84
2020/12/29 23:45:38;;;;;;;3.40;3.10;;;3.40;99.90;;;;;;4887140;29;20228;-83
2020/12/29 23:48:13;;;;;;;3.25;2.95;;;3.50;99.90;;;;;;4886758;29;20258;-83
2020/12/29 23:50:46;;;;;;;2.88;2.70;;;3.50;99.90;;;;;;4886766;29;20299;-84
2020/12/29 23:56:34;;;;;;;;;;;;;;;;;;;;;
2020/12/29 23:59:24;;;;;;;2.55;2.35;;;3.50;99.90;;;;;;4882250;29;20314;-84
